Airfield :
LOGIN :

Register | Disclaimer

   EN    FR    IT 

 










Legend :    VFR   Marginal VFR   IFR   Intensive IFR   Very Intensive IFR
Visi :
Ceiling :
>= 8 km
>= 3000ft
5 to 8 km
1000 to 3000 ft
1500m to 5 km
500 to 1000 ft
800 to 1500m
200 to 500 ft
< 800m
< 200 ft
Symbols :   Thunderstorms  Fog  Heavy snow  Heavy precipitations  Wind > 20 kt
SIGMETs :     Misc.  Thunderstorms  Icing  Turbulence  Mountain Waves  Volcanic Ashes






- Airport Elevation : 218 ft
- IATA code : LBG


LFPB - Paris / Le Bourget

CURRENT METAR :
  • 270830Z AUTO 15011KT 3100 -RA BR OVC007/// 04/03 Q0994 BECMG 27020G40KT 9999 NSW BKN030

EXPIRED METARs :
  • 270800Z AUTO 15015KT 5000 -RA BR OVC008 04/03 Q0995 TEMPO 2500 RASN BECMG 17015G30KT
  • 270730Z AUTO 15018KT 4500 -RA BR OVC010 03/02 Q0996 TEMPO 2500 RASN BECMG 17015G30KT
  • 270700Z AUTO 15018KT 6000 RA OVC011 03/02 Q0998 TEMPO 2500 RASN BKN009 BECMG 17015G30KT
  • 270630Z AUTO 16017KT 7000 -RA OVC011 04/02 Q1000 TEMPO 2500 RASN BECMG 17015G30KT
  • 270600Z AUTO 16015KT 9000 -RA OVC012 04/02 Q1001 TEMPO 2500 RASN BECMG 17015G30KT

TAF AMD TAF LFPB
Valid from the 27 at 06:00 until the 28 at 06:00 UTC


270628Z 2706/2806 17015G30KT 9999 BKN030
TEMPO 2706/2710 3500 RA BKN009
PROB40
TEMPO 2706/2709 2500 RASN
PROB30
TEMPO 2706/2709 -SN
BECMG 2710/2712 27020G40KT
PROB40
TEMPO 2713/2714 30025G50KT SCT020TCU
BECMG 2717/2719 CAVOK
ATIS : +33 1 48 62 43 92



MET'MAP, your aeronautical weather chart ! - Copyright ORBIFLY December 2007 - Disclaimer

ORBIFLY MET'MAP TEAM :

Programming & Development : Alexandra Zaïnal
Concept & original design : Baudouin d'Aumeries
Assistance for programming : Marc-Olivier Méhu
Technical & hardware support : Manuel Goepfert

Contact : metmap@orbifly.com




SOURCES & CREDITS :

   NOAA